createdAt,value
2023-05-11T00:01:07.507Z,15.52
2023-05-11T00:06:08.851Z,15.98
2023-05-11T00:11:10.241Z,16.13
2023-05-11T00:16:11.702Z,17.45
2023-05-11T00:21:13.435Z,16.42
2023-05-11T00:26:15.006Z,17.23
2023-05-11T00:31:16.542Z,17.88
2023-05-11T00:36:17.912Z,17.83
2023-05-11T00:41:19.397Z,17.45
2023-05-11T00:46:20.803Z,19.40
2023-05-11T00:51:22.206Z,17.60
2023-05-11T00:56:23.530Z,18.50
2023-05-11T01:01:24.978Z,19.83
2023-05-11T01:06:26.441Z,17.17
2023-05-11T01:11:39.882Z,15.82
2023-05-11T01:16:43.904Z,15.17
2023-05-11T01:21:47.150Z,13.88
2023-05-11T01:27:03.376Z,13.88
2023-05-11T01:32:09.596Z,13.45
2023-05-11T01:37:14.063Z,13.63
2023-05-11T01:47:17.408Z,10.70
2023-05-11T01:52:20.204Z,11.52
2023-05-11T01:57:21.951Z,12.57
2023-05-11T02:02:25.142Z,10.73
2023-05-11T02:07:27.381Z,11.73
2023-05-11T02:12:29.743Z,10.88
2023-05-11T02:17:31.999Z,10.52
2023-05-11T02:22:33.633Z,10.68
2023-05-11T02:27:36.000Z,10.93
2023-05-11T02:32:39.137Z,10.15
2023-05-11T02:37:43.288Z,10.55
2023-05-11T02:42:46.829Z,9.57
2023-05-11T02:47:52.944Z,9.30
2023-05-11T02:52:55.652Z,8.63
2023-05-11T02:57:57.166Z,8.07
2023-05-11T03:02:59.314Z,8.05
2023-05-11T03:08:00.851Z,7.18
2023-05-11T03:13:02.411Z,7.85
2023-05-11T03:18:05.308Z,6.97
2023-05-11T03:23:07.547Z,6.65
2023-05-11T03:28:09.358Z,7.53
2023-05-11T03:33:10.749Z,8.05
2023-05-11T03:38:12.696Z,7.53
2023-05-11T03:43:16.462Z,7.50
2023-05-11T03:48:18.509Z,8.68
2023-05-11T03:53:20.058Z,7.95
2023-05-11T03:58:21.904Z,7.60
2023-05-11T04:03:23.412Z,8.93
2023-05-11T04:08:25.171Z,7.65
2023-05-11T04:13:26.640Z,8.85
2023-05-11T04:18:28.125Z,8.52
2023-05-11T04:23:29.513Z,7.75
2023-05-11T04:28:31.036Z,8.52
2023-05-11T04:33:32.369Z,8.82
2023-05-11T04:38:33.816Z,7.40
2023-05-11T04:43:35.343Z,7.88
2023-05-11T04:48:36.722Z,9.13
2023-05-11T04:53:38.238Z,8.10
2023-05-11T04:58:39.553Z,8.85
2023-05-11T05:03:40.994Z,7.22
2023-05-11T05:08:42.397Z,7.85
2023-05-11T05:13:43.933Z,8.52
2023-05-11T05:18:45.511Z,8.00
2023-05-11T05:23:47.030Z,8.75
2023-05-11T05:28:48.855Z,8.90
2023-05-11T05:33:50.358Z,8.55
2023-05-11T05:38:51.761Z,11.40
2023-05-11T05:43:54.357Z,9.75
2023-05-11T05:48:56.651Z,10.20
2023-05-11T05:53:58.222Z,9.70
2023-05-11T05:58:59.672Z,10.07
2023-05-11T06:04:01.121Z,9.07
2023-05-11T06:09:02.597Z,10.00
2023-05-11T06:14:04.020Z,10.57
2023-05-11T06:19:05.701Z,10.73
2023-05-11T06:24:07.321Z,11.48
2023-05-11T06:29:08.659Z,12.65
2023-05-11T06:34:10.502Z,13.73
2023-05-11T06:39:12.137Z,12.90
2023-05-11T06:44:13.571Z,14.15
2023-05-11T06:49:15.032Z,12.30
2023-05-11T06:54:16.969Z,13.68
2023-05-11T06:59:18.367Z,14.07
2023-05-11T07:04:19.899Z,13.27
2023-05-11T07:09:21.378Z,13.05
2023-05-11T07:14:22.804Z,14.68
2023-05-11T07:19:24.302Z,14.57
2023-05-11T07:24:25.826Z,13.32
2023-05-11T07:29:27.302Z,14.70
2023-05-11T07:34:30.672Z,13.53
2023-05-11T07:39:32.050Z,13.07
2023-05-11T07:44:33.400Z,14.43
2023-05-11T07:49:42.998Z,13.70
2023-05-11T07:54:45.130Z,16.70
2023-05-11T07:59:46.490Z,16.10
2023-05-11T08:04:48.045Z,14.68
2023-05-11T08:09:49.566Z,14.15
2023-05-11T08:14:51.005Z,15.50
2023-05-11T08:19:52.401Z,14.80
2023-05-11T08:24:53.840Z,12.82
2023-05-11T08:29:55.728Z,13.20
2023-05-11T08:34:57.527Z,14.85
2023-05-11T08:39:59.222Z,16.15
2023-05-11T08:45:01.755Z,17.13
2023-05-11T08:50:03.143Z,20.20
2023-05-11T08:55:04.715Z,17.80
2023-05-11T09:00:07.390Z,18.83
2023-05-11T09:05:09.106Z,18.92
2023-05-11T09:10:13.516Z,17.13
2023-05-11T09:15:15.254Z,19.08
2023-05-11T09:20:24.086Z,19.13
2023-05-11T09:25:26.498Z,18.83
2023-05-11T09:30:28.433Z,18.50
2023-05-11T09:35:33.745Z,15.65
2023-05-11T09:40:36.332Z,16.00
2023-05-11T09:45:38.920Z,16.52
2023-05-11T09:50:40.508Z,16.23
2023-05-11T09:55:51.088Z,15.73
2023-05-11T10:00:53.721Z,13.73
2023-05-11T10:05:59.526Z,13.73
2023-05-11T10:11:02.118Z,14.38
2023-05-11T10:16:10.007Z,13.38
2023-05-11T10:21:11.390Z,13.93
2023-05-11T10:26:13.049Z,14.15
2023-05-11T10:31:17.154Z,15.15
2023-05-11T10:36:19.318Z,13.85
2023-05-11T10:41:21.729Z,14.15
2023-05-11T10:46:28.189Z,13.13
2023-05-11T10:51:37.722Z,12.30
2023-05-11T10:56:47.985Z,10.80
2023-05-11T11:01:54.730Z,9.02
2023-05-11T11:07:06.004Z,8.18
2023-05-11T11:12:10.612Z,7.13
2023-05-11T11:17:15.399Z,8.80
2023-05-11T11:22:47.406Z,9.40
2023-05-11T11:27:48.972Z,7.85
2023-05-11T11:32:52.066Z,9.68
2023-05-11T11:38:00.261Z,11.00
2023-05-11T11:43:31.406Z,15.07
2023-05-11T11:48:33.579Z,15.82
2023-05-11T11:53:38.099Z,15.70
2023-05-11T11:58:43.018Z,16.23
2023-05-11T12:03:46.173Z,16.85
2023-05-11T12:08:47.902Z,16.27
2023-05-11T12:13:49.622Z,15.48
2023-05-11T12:18:51.978Z,16.42
2023-05-11T12:23:54.791Z,14.63
2023-05-11T12:29:09.497Z,16.63
2023-05-11T12:34:15.193Z,16.42
2023-05-11T12:39:17.778Z,17.65
2023-05-11T12:44:20.108Z,18.92
2023-05-11T12:49:26.622Z,20.17
2023-05-11T12:54:38.906Z,19.95
2023-05-11T12:59:40.630Z,20.73
2023-05-11T13:04:43.241Z,22.98
2023-05-11T13:09:55.485Z,30.63
2023-05-11T13:15:13.196Z,23.58
2023-05-11T13:20:26.577Z,23.60
2023-05-11T13:25:28.014Z,23.90
2023-05-11T13:30:29.450Z,24.45
2023-05-11T13:35:31.336Z,24.67
2023-05-11T13:40:33.681Z,23.98
2023-05-11T13:45:36.424Z,20.60
2023-05-11T13:50:37.877Z,23.05
2023-05-11T13:55:39.325Z,23.63
2023-05-11T14:00:40.812Z,22.60
2023-05-11T14:05:42.348Z,24.80
2023-05-11T14:10:44.060Z,23.05
2023-05-11T14:15:45.415Z,23.70
2023-05-11T14:20:46.788Z,23.88
2023-05-11T14:25:48.225Z,23.58
2023-05-11T14:30:49.720Z,23.15
2023-05-11T14:35:51.710Z,22.83
2023-05-11T14:40:53.073Z,21.52
2023-05-11T14:45:54.532Z,20.90
2023-05-11T14:50:56.382Z,22.65
2023-05-11T14:55:57.741Z,20.92
2023-05-11T15:00:59.104Z,18.85
2023-05-11T15:06:00.696Z,19.85
2023-05-11T15:11:02.009Z,20.23
2023-05-11T15:16:03.408Z,19.13
2023-05-11T15:21:05.876Z,16.67
2023-05-11T15:26:07.258Z,16.95
2023-05-11T15:36:11.372Z,14.90
2023-05-11T15:41:12.864Z,15.50
2023-05-11T15:46:14.234Z,16.48
2023-05-11T15:51:15.638Z,18.15
2023-05-11T15:56:17.127Z,14.98
2023-05-11T16:01:19.277Z,14.45
2023-05-11T16:06:21.290Z,13.52
2023-05-11T16:11:26.203Z,14.15
2023-05-11T16:16:38.550Z,10.98
2023-05-11T16:21:46.245Z,12.30
2023-05-11T16:26:48.234Z,6.90
2023-05-11T16:31:49.607Z,6.60
2023-05-11T16:36:51.074Z,6.50
2023-05-11T16:41:52.422Z,7.47
2023-05-11T16:46:53.868Z,10.18
2023-05-11T16:51:55.440Z,12.88
2023-05-11T16:56:57.229Z,14.48
2023-05-11T17:01:58.739Z,15.25
2023-05-11T17:07:00.329Z,16.52
2023-05-11T17:12:06.875Z,18.90
2023-05-11T17:17:08.306Z,17.42
2023-05-11T17:22:09.847Z,17.70
2023-05-11T17:27:11.248Z,17.45
2023-05-11T17:32:13.001Z,17.98
2023-05-11T17:53:20.861Z,19.77
2023-05-11T17:58:22.324Z,19.60
2023-05-11T18:03:23.759Z,18.80
2023-05-11T18:08:26.185Z,17.13
2023-05-11T18:13:28.659Z,16.88
2023-05-11T18:18:30.072Z,17.08
2023-05-11T18:23:32.180Z,17.08
2023-05-11T18:28:33.648Z,16.88
2023-05-11T18:33:35.162Z,15.90
2023-05-11T18:38:36.622Z,16.92
2023-05-11T18:43:38.066Z,14.90
2023-05-11T18:48:39.441Z,15.70
2023-05-11T18:53:40.793Z,16.23
2023-05-11T18:58:42.764Z,15.40
2023-05-11T19:03:44.182Z,15.38
2023-05-11T19:08:45.595Z,13.77
2023-05-11T19:13:47.542Z,14.27
2023-05-11T19:18:49.616Z,13.65
2023-05-11T19:23:51.127Z,14.55
2023-05-11T19:28:52.547Z,18.20
2023-05-11T19:33:53.922Z,13.73
2023-05-11T19:38:55.513Z,12.65
2023-05-11T19:43:56.920Z,13.48
2023-05-11T19:48:58.289Z,11.88
2023-05-11T19:53:59.686Z,11.82
2023-05-11T19:59:02.555Z,11.30
2023-05-11T20:04:04.149Z,11.45
2023-05-11T20:09:05.688Z,11.30
2023-05-11T20:14:07.042Z,10.35
2023-05-11T20:19:09.391Z,10.85
2023-05-11T20:24:10.902Z,11.10
2023-05-11T20:29:13.389Z,9.80
2023-05-11T20:34:15.115Z,9.00
2023-05-11T20:39:17.256Z,9.20
2023-05-11T20:44:18.789Z,9.13
2023-05-11T20:49:34.683Z,8.55
2023-05-11T20:54:39.877Z,8.68
2023-05-11T21:04:46.590Z,8.85
2023-05-11T21:09:47.959Z,8.52
2023-05-11T21:14:49.379Z,8.57
2023-05-11T21:19:50.840Z,7.43
2023-05-11T21:24:52.538Z,7.65
2023-05-11T21:29:53.938Z,7.60
2023-05-11T21:34:55.306Z,7.55
2023-05-11T21:39:56.726Z,7.10
2023-05-11T21:44:58.090Z,7.65
2023-05-11T21:49:59.614Z,7.03
2023-05-11T21:55:01.207Z,6.78
2023-05-11T22:00:02.713Z,7.13
2023-05-11T22:05:04.242Z,6.43
2023-05-11T22:10:05.948Z,7.35
2023-05-11T22:15:08.726Z,8.18
2023-05-11T22:20:10.470Z,7.15
2023-05-11T22:25:11.809Z,7.75
2023-05-11T22:30:13.207Z,7.50
2023-05-11T22:35:14.673Z,7.15
2023-05-11T22:40:16.181Z,8.15
2023-05-11T22:45:17.601Z,7.00
2023-05-11T22:50:19.149Z,7.68
2023-05-11T22:55:23.189Z,6.88
2023-05-11T23:05:43.564Z,6.70
2023-05-11T23:10:44.917Z,6.57
2023-05-11T23:15:46.466Z,7.13
2023-05-11T23:20:47.790Z,6.57
2023-05-11T23:25:49.130Z,6.68
2023-05-11T23:30:51.367Z,6.30
2023-05-11T23:35:54.663Z,6.07
2023-05-11T23:40:56.270Z,6.65
2023-05-11T23:45:57.809Z,6.63
2023-05-11T23:50:59.305Z,6.70
2023-05-11T23:56:00.928Z,6.25
